Historyczne dane pomiarowe

Dodano dane terminowe – wersja testowa.

Dane z okresu 1951-2019

Wersja bazy: 1.34 [2019-03-16, lista zmian], aktualizacja planowana na 2019-04-15

Dane meteo z obszaru Polski uzyskane na podstawie danych udostępnionych przez Instytut Meteorologii i Gospodarki Wodnej – Państwowy Instytut Badawczy.

 

Wybierz Datę:    

       

TemperaturaWilgotnośćWiatrCiśnienieOpadyŚniegCzas trwania zjawisk
 Stacja t tx tn tng RH VA  wxwx mslp ppp RRR   cm mm wxwxwxwxwxwxwx
1999-08-14 14.9 20.2 10.5 8.1 82.5- 4.3 3.7---- 0.0------------
1999-08-13 15.4 19.4 12.2 11.6 80.0- 4.7 3.7---- 0.0------------
1999-08-12 16.1 20.4 14.0 13.9 91.3- 7.0 4.0---- 0.2------------
1999-08-11 19.5 23.0 15.9 15.2 85.5- 6.7 1.7---- 3.6------------
1999-08-10 21.4 29.1 15.9 15.5 92.5- 5.3 3.3---- 10.6------------
1999-08-09 23.5 30.2 16.6 15.5 80.8- 3.7 3.0---- 15.2------------
1999-08-08 21.3 24.8 18.8 17.5 82.0- 4.7 6.7---- 0.0------------
1999-08-07 20.9 27.0 15.9 14.6 84.5- 4.7 4.7---- 0.0------------
1999-08-06 19.2 24.4 14.4 13.6 82.5- 7.0 2.0---- 3.8------------
1999-08-05 16.9 25.2 9.4 9.1 83.8- 4.0 0.0---- 0.0------------
1999-08-04 16.5 22.4 9.7 8.6 83.8- 2.7 0.3---- 3.1------------
1999-08-03 16.8 23.2 11.8 10.7 89.0- 6.7 0.7---- 0.0------------
1999-08-02 15.5 19.1 12.4 12.1 92.8- 8.0 1.7---- 3.8------------
1999-08-01 17.5 23.2 13.2 12.5 84.3- 6.7 2.7---- 0.3------------
1999-07-31 16.8 23.0 8.8 7.9 77.3- 5.3 4.0---- 0.0------------
1999-07-30 16.3 23.2 8.5 6.8 82.5- 5.0 4.7---- 0.1------------
1999-07-29 16.6 22.4 11.4 9.8 82.5- 4.7 5.0---- 0.0------------
1999-07-28 17.3 20.2 15.1 14.7 90.0- 6.0 4.0---- 0.0------------
1999-07-27 18.9 23.0 15.1 12.3 88.8- 7.0 3.3---- 0.0------------
1999-07-26 20.6 27.6 13.3 12.1 89.3- 4.7 2.3---- 0.5------------
1999-07-25 16.7 22.0 11.1 9.8 87.0- 4.3 1.0---- 0.0------------
1999-07-24 15.7 20.6 11.8 11.6 93.5- 5.0 1.7---- 0.3------------
1999-07-23 15.3 20.4 12.2 11.9 96.8- 8.0 5.0---- 38.3------------
1999-07-22 20.4 26.0 17.1 15.5 87.8- 6.0 2.7---- 11.2------------
1999-07-21 21.5 28.4 14.2 12.1 77.8- 4.7 3.3---- 7.6------------
1999-07-20 20.3 29.4 9.9 8.6 73.8- 1.7 0.7---- 0.0------------
1999-07-19 18.7 26.7 9.2 8.3 66.8- 3.3 1.3---- 0.0------------
1999-07-18 17.0 24.6 8.3 7.5 75.5- 2.3 1.3---- 0.0------------
1999-07-17 15.4 22.8 8.2 7.3 88.5- 5.3 1.0---- 0.0------------
1999-07-16 16.3 22.4 8.8 7.3 75.0- 4.0 4.0---- 0.0------------
1999-07-15 17.0 21.4 14.4 13.6 86.8- 6.0 4.0---- 1.1------------
1999-07-14 19.4 21.4 17.6 16.5 88.0- 7.0 4.7---- 12.9------------
1999-07-13 20.2 23.8 15.2 13.6 85.0- 5.7 4.7---- 1.7------------
1999-07-12 20.6 26.6 14.2 13.5 77.3- 5.7 3.0---- 0.0------------
1999-07-11 20.3 24.4 16.7 16.0 79.3- 5.3 3.7---- 2.8------------
1999-07-10 19.3 23.1 16.7 16.0 91.0- 8.0 4.0---- 0.0------------
1999-07-09 20.7 25.6 15.1 14.1 81.0- 6.7 1.7---- 0.0------------
1999-07-08 21.4 25.8 17.4 16.2 87.0- 7.3 0.0---- 6.2------------
1999-07-07 23.4 28.1 19.8 17.1 79.0- 6.3 3.7---- 10.8------------
1999-07-06 24.7 30.0 17.8 16.1 62.5- 1.7 8.0---- 0.0------------
1999-07-05 23.1 29.3 15.1 14.1 64.8- 1.0 5.0---- 0.0------------
1999-07-04 20.8 28.4 11.3 9.7 75.0- 0.3 2.0---- 0.0------------
1999-07-03 18.8 24.8 12.2 11.4 89.3- 3.7 1.3---- 0.0------------
1999-07-02 19.2 25.0 12.7 11.3 85.5- 6.0 4.0---- 0.0------------
1999-07-01 17.8 24.2 9.9 8.7 82.3- 4.0 1.7---- 0.0------------
1999-06-30 18.4 24.8 10.9 9.3 86.3- 1.7 0.3---- 0.0------------
1999-06-29 18.2 23.4 12.4 10.7 88.3- 5.3 5.0---- 0.0------------
1999-06-28 19.7 26.4 11.3 8.3 76.0- 4.3 2.0---- 0.0------------
1999-06-27 18.3 26.0 8.1 6.6 75.0- 1.0 3.0---- 0.0------------
1999-06-26 15.6 23.0 5.5 4.6 79.5- 1.0 1.7---- 0.0------------
1999-06-25 13.1 18.4 9.0 8.7 87.8- 4.3 2.7---- 0.0------------
1999-06-24 9.8 11.1 8.8 8.5 98.3- 8.0 4.0---- 22.1------------
1999-06-23 9.1 10.9 7.1 6.6 97.5- 8.0 7.3---- 10.9------------
1999-06-22 12.5 17.0 8.9 8.1 96.3- 7.3 5.7---- 16.8------------
1999-06-21 18.1 25.3 13.2 12.5 87.0- 7.0 1.7---- 17.1------------
1999-06-20 17.6 22.2 14.7 14.6 89.0- 6.7 4.0---- 1.1------------
1999-06-19 16.8 21.8 13.4 12.4 89.0- 7.0 4.7---- 0.0------------
1999-06-18 18.0 24.8 14.2 13.6 86.5- 6.0 2.3---- 0.0------------
1999-06-17 18.4 24.0 15.3 14.6 68.8- 7.0 2.0---- 24.6------------
1999-06-16 19.7 28.0 15.6 15.2 89.3- 6.7 0.7---- 0.9------------
301.5 ms

 

Źródłem pochodzenia danych jest Instytut Meteorologii i Gospodarki Wodnej – Państwowy Instytut Badawczy. Dane Instytutu Meteorologii i Gospodarki Wodnej – Państwowego Instytutu Badawczego zostały przetworzone.

Dane źródłowe można odnaleźć na stronie https://dane.imgw.pl